Time;durP1;ratioP1;P1;durP2;ratioP2;P2;SDS_P1;SDS_P2;PMS_P1;PMS_P2;Temp;Humidity;BMP_temperature;BMP_pressure;BME280_temperature;BME280_humidity;BME280_pressure;Samples;Min_cycle;Max_cycle;Signal;HPM_P1;HPM_P2
2023/07/13 00:01:13;;;;;;;5.45;3.50;;;18.30;99.90;;;;;;5083248;28;20225;-84
2023/07/13 00:03:42;;;;;;;5.15;3.08;;;18.30;99.90;;;;;;5087950;28;20202;-84
2023/07/13 00:06:09;;;;;;;6.38;3.10;;;18.30;99.90;;;;;;5087790;28;20198;-84
2023/07/13 00:08:36;;;;;;;6.20;3.85;;;18.20;99.90;;;;;;5093062;28;20218;-80
2023/07/13 00:11:04;;;;;;;4.20;2.88;;;18.10;99.90;;;;;;5086584;28;20302;-84
2023/07/13 00:13:31;;;;;;;4.95;3.10;;;18.20;99.90;;;;;;5086336;28;20230;-84
2023/07/13 00:16:00;;;;;;;5.63;3.20;;;18.20;99.90;;;;;;5090528;28;20662;-81
2023/07/13 00:18:29;;;;;;;6.75;3.53;;;18.10;99.90;;;;;;5089090;28;20719;-84
2023/07/13 00:21:04;;;;;;;5.57;3.10;;;18.10;99.90;;;;;;5086780;28;20226;-80
2023/07/13 00:23:32;;;;;;;3.72;2.92;;;18.10;99.90;;;;;;5095195;28;20280;-82
2023/07/13 00:25:59;;;;;;;4.47;2.80;;;18.10;99.90;;;;;;5094353;28;20604;-83
2023/07/13 00:28:26;;;;;;;5.20;3.38;;;18.10;99.90;;;;;;5086672;28;20576;-82
2023/07/13 00:30:54;;;;;;;6.97;3.40;;;18.20;99.90;;;;;;5086009;28;20308;-82
2023/07/13 00:33:21;;;;;;;5.43;3.30;;;18.10;99.90;;;;;;5093276;28;20697;-79
2023/07/13 00:35:48;;;;;;;6.18;3.63;;;18.10;99.90;;;;;;5089848;28;20293;-82
2023/07/13 00:38:16;;;;;;;4.72;3.20;;;18.00;99.90;;;;;;5089612;28;20298;-83
2023/07/13 00:40:43;;;;;;;4.03;3.53;;;18.10;99.90;;;;;;5090184;28;20580;-80
2023/07/13 00:43:15;;;;;;;4.70;3.10;;;18.20;99.90;;;;;;5092251;28;20210;-83
2023/07/13 00:46:16;;;;;;;4.65;3.40;;;18.10;99.90;;;;;;5086326;28;20197;-82
2023/07/13 00:48:45;;;;;;;5.78;3.50;;;18.10;99.90;;;;;;5089275;28;20216;-82
2023/07/13 00:51:12;;;;;;;5.75;3.13;;;18.00;99.90;;;;;;5089795;28;20199;-81
2023/07/13 00:53:41;;;;;;;5.07;3.75;;;17.90;99.90;;;;;;5087352;28;20246;-80
2023/07/13 00:56:08;;;;;;;6.25;3.80;;;17.90;99.90;;;;;;5091631;28;20206;-80
2023/07/13 00:58:36;;;;;;;4.97;3.20;;;17.90;99.90;;;;;;5085257;28;20206;-83
2023/07/13 01:01:03;;;;;;;6.63;3.60;;;17.90;99.90;;;;;;5089711;28;20280;-83
2023/07/13 01:03:30;;;;;;;3.53;3.17;;;17.70;99.90;;;;;;5088610;28;20598;-83
2023/07/13 01:05:57;;;;;;;4.35;3.47;;;17.90;99.90;;;;;;5091017;28;20731;-83
2023/07/13 01:08:24;;;;;;;6.57;3.50;;;18.00;99.90;;;;;;5085167;28;20198;-84
2023/07/13 01:10:57;;;;;;;4.50;3.22;;;17.80;99.90;;;;;;5088275;28;20232;-81
2023/07/13 01:13:25;;;;;;;6.18;3.10;;;17.80;99.90;;;;;;5096270;28;20247;-82
2023/07/13 01:15:53;;;;;;;4.97;3.38;;;17.70;99.90;;;;;;5084623;28;20216;-84
2023/07/13 01:18:22;;;;;;;4.75;3.30;;;17.60;99.90;;;;;;5091307;28;20197;-84
2023/07/13 01:20:54;;;;;;;5.10;3.17;;;17.50;99.90;;;;;;5085118;28;20205;-81
2023/07/13 01:23:22;;;;;;;4.70;3.22;;;17.30;99.90;;;;;;5083884;28;20599;-80
2023/07/13 01:25:48;;;;;;;5.03;3.55;;;17.30;99.90;;;;;;5090037;28;20807;-82
2023/07/13 01:28:16;;;;;;;3.78;3.17;;;17.30;99.90;;;;;;5084899;28;20195;-81
2023/07/13 01:30:45;;;;;;;4.50;3.40;;;17.10;99.90;;;;;;5086916;28;20237;-80
2023/07/13 01:33:13;;;;;;;4.05;3.63;;;17.00;99.90;;;;;;5084687;28;20218;-81
2023/07/13 01:35:40;;;;;;;5.60;3.83;;;17.00;99.90;;;;;;5086300;28;20218;-80
2023/07/13 01:38:09;;;;;;;5.95;3.40;;;16.90;99.90;;;;;;5089181;28;20195;-82
2023/07/13 01:40:36;;;;;;;5.43;3.20;;;16.80;99.90;;;;;;5085028;28;20210;-81
2023/07/13 01:43:03;;;;;;;7.90;3.80;;;16.90;99.90;;;;;;5087241;28;20585;-82
2023/07/13 01:45:30;;;;;;;6.85;3.72;;;16.80;99.90;;;;;;5082115;28;20248;-80
2023/07/13 01:47:57;;;;;;;3.85;3.42;;;16.80;99.90;;;;;;5079922;28;20193;-83
2023/07/13 01:50:24;;;;;;;4.40;3.35;;;16.80;99.90;;;;;;5087836;28;20223;-80
2023/07/13 01:52:51;;;;;;;4.50;3.50;;;16.90;99.90;;;;;;5084260;28;20230;-83
2023/07/13 01:55:20;;;;;;;4.75;3.88;;;16.80;99.90;;;;;;5088891;28;20197;-81
2023/07/13 01:57:47;;;;;;;5.68;3.53;;;16.70;99.90;;;;;;5084581;28;20673;-83
2023/07/13 02:00:15;;;;;;;4.80;3.47;;;16.50;99.90;;;;;;5089534;28;20261;-81
2023/07/13 02:02:42;;;;;;;5.55;3.50;;;16.50;99.90;;;;;;5086472;28;20802;-84
2023/07/13 02:05:09;;;;;;;4.10;3.42;;;16.50;99.90;;;;;;5087447;28;20582;-83
2023/07/13 02:07:36;;;;;;;4.65;3.50;;;16.40;99.90;;;;;;5086255;28;20617;-83
2023/07/13 02:10:03;;;;;;;6.05;3.20;;;16.20;99.90;;;;;;5088216;28;20203;-83
2023/07/13 02:12:32;;;;;;;6.07;3.60;;;16.00;99.90;;;;;;5094859;28;20236;-84
2023/07/13 02:14:58;;;;;;;5.95;3.60;;;16.10;99.90;;;;;;5086893;28;20268;-80
2023/07/13 02:17:26;;;;;;;6.35;3.10;;;16.20;99.90;;;;;;5086817;28;20193;-82
2023/07/13 02:19:54;;;;;;;5.10;2.95;;;16.10;99.90;;;;;;5079293;28;20285;-82
2023/07/13 02:22:21;;;;;;;5.50;3.53;;;16.10;99.90;;;;;;5088667;28;20223;-82
2023/07/13 02:24:49;;;;;;;4.85;2.97;;;16.10;99.90;;;;;;5085512;28;20279;-84
2023/07/13 02:27:16;;;;;;;4.32;3.00;;;16.20;99.90;;;;;;5086156;28;20202;-82
2023/07/13 02:29:44;;;;;;;7.72;4.80;;;16.30;99.90;;;;;;5095069;28;20688;-83
2023/07/13 02:32:11;;;;;;;6.07;4.00;;;16.30;99.90;;;;;;5084875;28;20712;-80
2023/07/13 02:34:38;;;;;;;6.78;4.65;;;16.30;99.90;;;;;;5085004;28;20228;-80
2023/07/13 02:37:05;;;;;;;4.72;3.20;;;16.40;99.90;;;;;;5082876;28;20282;-82
2023/07/13 02:39:33;;;;;;;5.10;3.20;;;16.40;99.90;;;;;;5085234;28;21058;-79
2023/07/13 02:42:00;;;;;;;4.57;3.03;;;16.30;99.90;;;;;;5082541;28;20888;-83
2023/07/13 02:44:26;;;;;;;4.75;3.20;;;16.20;99.90;;;;;;5085203;28;20201;-83
2023/07/13 02:46:55;;;;;;;5.07;3.15;;;16.30;99.90;;;;;;5084881;28;20201;-83
2023/07/13 02:49:22;;;;;;;5.00;3.30;;;16.20;99.90;;;;;;5085952;28;20204;-83
2023/07/13 02:51:48;;;;;;;8.88;4.00;;;16.10;99.90;;;;;;5086641;28;20217;-82
2023/07/13 02:54:15;;;;;;;3.85;3.50;;;16.00;99.90;;;;;;5082187;28;20221;-83
2023/07/13 02:56:43;;;;;;;3.97;3.20;;;15.90;99.90;;;;;;5089505;28;20208;-82
2023/07/13 02:59:10;;;;;;;3.67;3.20;;;16.00;99.90;;;;;;5085074;28;20247;-82
2023/07/13 03:01:37;;;;;;;6.55;3.10;;;15.90;99.90;;;;;;5090019;28;20236;-80
2023/07/13 03:04:05;;;;;;;6.53;3.30;;;15.80;99.90;;;;;;5082170;28;20225;-84
2023/07/13 03:06:33;;;;;;;5.18;2.88;;;15.50;99.90;;;;;;5081969;28;20222;-83
2023/07/13 03:09:00;;;;;;;4.78;3.03;;;15.40;99.90;;;;;;5090696;28;20202;-80
2023/07/13 03:11:27;;;;;;;4.47;3.28;;;15.50;99.90;;;;;;5088779;28;20229;-79
2023/07/13 03:13:54;;;;;;;4.13;3.08;;;15.50;99.90;;;;;;5076986;28;20229;-82
2023/07/13 03:16:21;;;;;;;4.20;3.22;;;15.40;99.90;;;;;;5079737;28;20216;-79
2023/07/13 03:18:49;;;;;;;3.80;3.10;;;15.40;99.90;;;;;;5084099;28;20201;-82
2023/07/13 03:21:17;;;;;;;5.32;3.00;;;15.40;99.90;;;;;;5081687;28;20558;-80
2023/07/13 03:23:44;;;;;;;4.30;3.22;;;15.30;99.90;;;;;;5089988;28;20197;-80
2023/07/13 03:26:14;;;;;;;6.80;3.13;;;15.40;99.90;;;;;;5084567;28;20208;-82
2023/07/13 03:28:42;;;;;;;6.95;3.42;;;15.20;99.90;;;;;;5090943;28;20301;-81
2023/07/13 03:31:11;;;;;;;8.93;4.95;;;15.10;99.90;;;;;;5093525;28;20666;-84
2023/07/13 03:33:38;;;;;;;4.07;3.30;;;15.40;99.90;;;;;;5088804;28;20249;-80
2023/07/13 03:36:05;;;;;;;6.70;3.90;;;15.30;99.90;;;;;;5082499;28;20201;-83
2023/07/13 03:38:34;;;;;;;7.45;3.42;;;15.30;99.90;;;;;;5083631;28;20205;-81
2023/07/13 03:41:01;;;;;;;5.15;3.20;;;15.20;99.90;;;;;;5089177;28;20606;-79
2023/07/13 03:43:28;;;;;;;7.78;3.30;;;15.30;99.90;;;;;;5084055;28;20682;-79
2023/07/13 03:45:55;;;;;;;6.30;3.28;;;15.50;99.90;;;;;;5084206;28;20654;-82
2023/07/13 03:48:22;;;;;;;5.20;3.25;;;15.40;99.90;;;;;;5080316;28;20242;-79
2023/07/13 03:50:50;;;;;;;5.35;2.90;;;15.50;99.90;;;;;;5094076;28;20244;-80
2023/07/13 03:53:18;;;;;;;4.53;3.05;;;15.80;99.90;;;;;;5092095;28;20247;-79
2023/07/13 03:55:46;;;;;;;6.15;3.50;;;15.80;99.90;;;;;;5082966;28;20206;-79
2023/07/13 03:58:31;;;;;;;5.32;3.05;;;15.80;99.90;;;;;;5085571;28;20645;-81
2023/07/13 04:00:59;;;;;;;3.90;2.97;;;16.00;99.90;;;;;;5082248;28;20198;-81
2023/07/13 04:03:28;;;;;;;4.75;2.92;;;16.10;99.90;;;;;;5087805;28;20685;-81
2023/07/13 04:05:59;;;;;;;4.75;3.10;;;16.30;99.90;;;;;;5082856;28;20202;-81
2023/07/13 04:08:27;;;;;;;7.53;3.00;;;16.30;99.90;;;;;;5082392;28;20215;-80
2023/07/13 04:10:56;;;;;;;5.47;3.10;;;16.20;99.90;;;;;;5093415;28;20311;-80
2023/07/13 04:13:23;;;;;;;3.75;2.70;;;16.50;99.90;;;;;;5084863;28;20250;-81
2023/07/13 04:15:51;;;;;;;4.30;3.20;;;16.70;99.90;;;;;;5085735;28;20679;-82
2023/07/13 04:18:18;;;;;;;3.10;2.80;;;16.70;99.90;;;;;;5088774;28;20202;-79
2023/07/13 04:20:45;;;;;;;5.57;3.10;;;16.80;99.90;;;;;;5088520;28;20669;-79
2023/07/13 04:23:12;;;;;;;6.40;3.10;;;16.90;99.90;;;;;;5088696;28;20300;-79
2023/07/13 04:25:38;;;;;;;3.35;2.70;;;17.40;99.90;;;;;;5088758;28;20225;-81
2023/07/13 04:28:07;;;;;;;8.23;3.17;;;18.50;99.90;;;;;;5085709;28;20293;-82
2023/07/13 04:30:34;;;;;;;3.22;2.60;;;19.00;99.90;;;;;;5085169;28;20289;-80
2023/07/13 04:33:01;;;;;;;3.00;2.70;;;19.20;99.90;;;;;;5092827;28;20261;-82
2023/07/13 04:35:28;;;;;;;4.55;2.63;;;18.70;99.90;;;;;;5082343;28;20197;-82
2023/07/13 04:37:55;;;;;;;4.70;2.42;;;18.20;99.90;;;;;;5088085;28;20234;-82
2023/07/13 04:40:22;;;;;;;5.35;2.42;;;17.80;99.90;;;;;;5088414;28;20734;-82
2023/07/13 04:42:49;;;;;;;4.50;2.63;;;17.40;99.90;;;;;;5087560;28;20321;-80
2023/07/13 04:45:17;;;;;;;4.70;2.75;;;17.20;99.90;;;;;;5084468;28;20198;-82
2023/07/13 04:47:45;;;;;;;4.95;2.60;;;17.10;99.90;;;;;;5084221;28;20612;-80
2023/07/13 04:50:19;;;;;;;7.18;2.60;;;17.10;99.90;;;;;;5088040;28;20205;-80
2023/07/13 04:52:46;;;;;;;4.82;2.83;;;17.10;99.90;;;;;;5088665;28;20232;-80
2023/07/13 04:55:13;;;;;;;4.97;2.78;;;17.00;99.90;;;;;;5084124;28;20250;-81
2023/07/13 04:57:40;;;;;;;3.65;2.60;;;17.10;99.90;;;;;;5091924;28;20241;-80
2023/07/13 05:00:09;;;;;;;6.07;3.10;;;17.00;99.90;;;;;;5085129;28;20233;-79
2023/07/13 05:02:39;;;;;;;3.10;2.40;;;17.10;99.90;;;;;;5084230;28;20233;-80
2023/07/13 05:05:07;;;;;;;4.57;2.67;;;17.20;99.90;;;;;;5086457;28;20233;-80
2023/07/13 05:07:34;;;;;;;10.60;3.83;;;17.50;99.90;;;;;;5087634;28;20624;-79
2023/07/13 05:10:02;;;;;;;7.38;3.05;;;17.60;99.90;;;;;;5085344;28;20198;-81
2023/07/13 05:12:29;;;;;;;9.00;3.08;;;17.60;99.90;;;;;;5083826;28;20896;-82
2023/07/13 05:14:56;;;;;;;6.75;2.88;;;17.60;99.90;;;;;;5094068;28;20225;-79
2023/07/13 05:17:23;;;;;;;8.20;3.15;;;17.70;99.90;;;;;;5087399;28;20285;-82
2023/07/13 05:19:51;;;;;;;7.05;2.97;;;17.90;99.90;;;;;;5087511;28;20198;-81
2023/07/13 05:22:18;;;;;;;4.55;3.00;;;17.90;99.90;;;;;;5088113;28;20221;-81
2023/07/13 05:24:45;;;;;;;5.43;2.47;;;18.00;99.90;;;;;;5088630;28;20569;-82
2023/07/13 05:27:12;;;;;;;6.25;2.80;;;18.40;99.90;;;;;;5087032;28;20628;-80
2023/07/13 05:29:39;;;;;;;5.22;2.47;;;18.60;99.90;;;;;;5090295;28;20265;-82
2023/07/13 05:32:06;;;;;;;5.85;2.67;;;18.70;99.90;;;;;;5091377;28;20229;-81
2023/07/13 05:34:33;;;;;;;6.82;3.05;;;18.90;99.90;;;;;;5081100;28;20217;-82
2023/07/13 05:37:01;;;;;;;6.03;3.17;;;19.20;99.90;;;;;;5091042;28;20212;-82
2023/07/13 05:39:28;;;;;;;5.15;2.53;;;18.90;99.90;;;;;;5084678;28;20205;-82
2023/07/13 05:41:55;;;;;;;7.18;2.58;;;18.60;99.90;;;;;;5083841;28;20221;-81
2023/07/13 05:44:22;;;;;;;6.30;2.60;;;18.60;99.90;;;;;;5084373;28;20209;-81
2023/07/13 05:46:49;;;;;;;6.70;2.95;;;18.70;99.90;;;;;;5077637;28;20221;-80
2023/07/13 05:49:15;;;;;;;4.45;2.58;;;18.40;99.90;;;;;;5078766;28;20193;-82
2023/07/13 05:51:42;;;;;;;9.63;2.90;;;18.60;99.90;;;;;;5087991;28;20224;-82
2023/07/13 05:54:10;;;;;;;8.50;2.80;;;19.40;99.90;;;;;;5085262;28;20221;-79
2023/07/13 05:56:37;;;;;;;7.38;2.92;;;21.10;99.90;;;;;;5090527;28;20263;-80
2023/07/13 05:59:04;;;;;;;5.07;2.60;;;21.80;99.90;;;;;;5095039;28;20658;-82
2023/07/13 06:01:31;;;;;;;4.88;2.38;;;21.40;99.90;;;;;;5084337;28;20226;-83
2023/07/13 06:03:58;;;;;;;7.00;2.90;;;20.10;99.90;;;;;;5092183;28;21035;-82
2023/07/13 06:06:25;;;;;;;3.00;2.22;;;19.60;99.90;;;;;;5088130;28;20205;-83
2023/07/13 06:08:52;;;;;;;7.00;2.95;;;19.20;99.90;;;;;;5087187;28;20205;-81
2023/07/13 06:11:22;;;;;;;3.78;2.38;;;18.70;99.90;;;;;;5083636;28;20586;-82
2023/07/13 06:13:50;;;;;;;6.20;3.15;;;18.70;99.90;;;;;;5084177;28;20202;-81
2023/07/13 06:16:17;;;;;;;4.57;2.53;;;18.60;99.90;;;;;;5086399;28;20202;-82
2023/07/13 06:18:44;;;;;;;6.38;2.75;;;18.90;99.90;;;;;;5086844;28;20226;-81
2023/07/13 06:21:13;;;;;;;6.95;2.53;;;18.80;99.90;;;;;;5086326;28;20214;-83
2023/07/13 06:23:40;;;;;;;8.38;3.22;;;18.90;99.90;;;;;;5091742;28;20201;-80
2023/07/13 06:26:07;;;;;;;4.93;2.78;;;19.00;99.90;;;;;;5085046;28;20294;-80
2023/07/13 06:28:36;;;;;;;6.45;3.00;;;18.90;99.90;;;;;;5085556;28;20233;-82
2023/07/13 06:31:05;;;;;;;9.38;2.85;;;18.80;99.90;;;;;;5089110;28;20202;-82
2023/07/13 06:33:32;;;;;;;8.40;2.90;;;18.70;99.90;;;;;;5087816;28;20205;-82
2023/07/13 06:35:59;;;;;;;6.75;2.80;;;18.70;99.90;;;;;;5084713;28;20768;-81
2023/07/13 06:38:26;;;;;;;9.15;3.00;;;19.00;99.90;;;;;;5087178;28;20204;-83
2023/07/13 06:40:53;;;;;;;7.07;3.10;;;18.90;99.90;;;;;;5087810;28;20205;-81
2023/07/13 06:43:20;;;;;;;7.32;2.78;;;18.80;99.90;;;;;;5087465;28;20697;-80
2023/07/13 06:45:49;;;;;;;5.95;2.50;;;18.50;99.90;;;;;;5087421;28;20209;-81
2023/07/13 06:48:16;;;;;;;5.20;2.90;;;18.60;99.90;;;;;;5084824;28;20209;-81
2023/07/13 06:50:44;;;;;;;6.30;2.40;;;18.50;99.90;;;;;;5081520;28;20280;-80
2023/07/13 06:53:11;;;;;;;5.97;2.58;;;18.50;99.90;;;;;;5084674;28;20308;-82
2023/07/13 06:55:38;;;;;;;7.25;2.60;;;18.50;99.90;;;;;;5088655;28;20599;-80
2023/07/13 06:58:05;;;;;;;7.18;2.47;;;18.50;99.90;;;;;;5094113;28;20211;-82
2023/07/13 07:00:32;;;;;;;9.07;2.58;;;18.40;99.90;;;;;;5088247;28;20284;-82
2023/07/13 07:03:00;;;;;;;7.78;2.50;;;18.60;99.90;;;;;;5089946;28;20225;-82
2023/07/13 07:05:27;;;;;;;6.93;2.17;;;18.50;99.90;;;;;;5083450;28;20194;-82
2023/07/13 07:07:56;;;;;;;4.53;2.03;;;18.60;99.90;;;;;;5091194;28;20204;-82
2023/07/13 07:10:23;;;;;;;6.40;2.22;;;18.70;99.90;;;;;;5082868;28;20201;-82
2023/07/13 07:12:50;;;;;;;2.70;1.92;;;18.70;99.90;;;;;;5082957;28;20694;-82
2023/07/13 07:15:17;;;;;;;5.90;2.45;;;18.60;99.90;;;;;;5091046;28;20229;-82
2023/07/13 07:17:44;;;;;;;4.38;2.00;;;18.60;99.90;;;;;;5082694;28;20208;-79
2023/07/13 07:20:13;;;;;;;5.63;2.13;;;18.60;99.90;;;;;;5091483;28;20582;-81
2023/07/13 07:22:40;;;;;;;6.97;2.13;;;18.70;99.90;;;;;;5087620;28;20312;-82
2023/07/13 07:25:07;;;;;;;3.92;2.10;;;18.70;99.90;;;;;;5085494;28;20209;-81
2023/07/13 07:27:34;;;;;;;3.25;1.98;;;18.70;99.90;;;;;;5084972;28;20209;-82
2023/07/13 07:30:01;;;;;;;6.15;1.90;;;18.70;99.90;;;;;;5087091;28;20311;-79
2023/07/13 07:32:30;;;;;;;4.75;2.20;;;18.80;99.90;;;;;;5092483;28;20217;-82
2023/07/13 07:34:57;;;;;;;4.15;2.20;;;18.70;99.90;;;;;;5087069;28;20751;-81
2023/07/13 07:37:26;;;;;;;4.75;2.10;;;18.90;99.90;;;;;;5089798;28;20198;-82
2023/07/13 07:39:53;;;;;;;3.00;1.90;;;19.00;99.90;;;;;;5086346;28;20237;-82
2023/07/13 07:42:20;;;;;;;5.38;2.28;;;19.10;99.90;;;;;;5084122;28;20645;-81
2023/07/13 07:44:46;;;;;;;5.55;1.85;;;19.10;99.90;;;;;;5086614;28;20627;-82
2023/07/13 07:47:13;;;;;;;3.75;1.67;;;19.10;99.90;;;;;;5096924;28;20197;-82
2023/07/13 07:49:40;;;;;;;5.57;2.45;;;19.20;99.90;;;;;;5094313;28;20234;-79
2023/07/13 07:52:08;;;;;;;4.63;1.85;;;19.20;99.90;;;;;;5095805;28;20249;-80
2023/07/13 07:54:36;;;;;;;7.05;2.35;;;19.30;99.90;;;;;;5087592;28;20240;-81
2023/07/13 07:57:04;;;;;;;3.08;1.70;;;19.20;99.90;;;;;;5087254;28;20204;-81
2023/07/13 07:59:30;;;;;;;5.68;2.03;;;19.10;99.90;;;;;;5088077;28;20592;-79
2023/07/13 08:01:57;;;;;;;7.47;1.80;;;19.20;99.90;;;;;;5095106;28;20221;-82
2023/07/13 08:04:24;;;;;;;5.63;2.20;;;19.10;99.90;;;;;;5090262;28;20206;-80
2023/07/13 08:06:51;;;;;;;5.97;1.77;;;19.30;99.90;;;;;;5089980;28;20235;-82
2023/07/13 08:09:18;;;;;;;4.25;2.15;;;19.40;99.90;;;;;;5087899;28;20257;-82
2023/07/13 08:11:47;;;;;;;4.85;1.80;;;19.50;99.90;;;;;;5091384;28;20253;-81
2023/07/13 08:14:14;;;;;;;6.65;1.95;;;19.30;99.90;;;;;;5088169;28;20206;-81
2023/07/13 08:16:41;;;;;;;4.82;1.92;;;19.40;99.90;;;;;;5090833;28;20206;-81
2023/07/13 08:19:07;;;;;;;7.55;2.30;;;19.40;99.90;;;;;;5089684;28;20233;-82
2023/07/13 08:21:35;;;;;;;4.30;2.55;;;19.60;99.90;;;;;;5089538;28;20228;-82
2023/07/13 08:24:02;;;;;;;5.90;2.13;;;19.70;99.90;;;;;;5089614;28;20201;-82
2023/07/13 08:26:29;;;;;;;7.35;2.25;;;19.60;99.90;;;;;;5089470;28;20190;-80
2023/07/13 08:28:57;;;;;;;4.60;1.90;;;19.60;99.90;;;;;;5088752;28;20622;-80
2023/07/13 08:31:24;;;;;;;5.00;1.90;;;19.80;99.90;;;;;;5088858;28;20206;-80
2023/07/13 08:33:51;;;;;;;5.43;1.85;;;20.10;99.90;;;;;;5090775;28;20658;-80
2023/07/13 08:36:18;;;;;;;9.02;2.13;;;19.90;99.90;;;;;;5092807;28;20221;-80
2023/07/13 08:38:45;;;;;;;4.78;1.85;;;20.00;99.90;;;;;;5091587;28;20267;-82
2023/07/13 08:41:14;;;;;;;4.47;2.00;;;20.30;99.90;;;;;;5088842;28;20277;-82
2023/07/13 08:43:43;;;;;;;5.30;2.05;;;20.10;99.90;;;;;;5091289;28;20208;-82
2023/07/13 08:46:17;;;;;;;3.45;1.90;;;20.20;99.90;;;;;;5088748;28;20710;-81
2023/07/13 08:48:48;;;;;;;4.00;2.08;;;20.30;99.90;;;;;;5086056;28;20203;-80
2023/07/13 08:51:28;;;;;;;3.17;1.60;;;20.30;99.90;;;;;;5087468;28;20263;-81
2023/07/13 08:53:59;;;;;;;5.50;2.10;;;20.40;99.90;;;;;;5089625;28;20709;-81
2023/07/13 08:56:28;;;;;;;5.32;2.10;;;20.90;99.90;;;;;;5087158;28;20222;-82
2023/07/13 08:58:58;;;;;;;6.32;1.90;;;21.10;99.90;;;;;;5092332;28;20201;-81
2023/07/13 09:01:33;;;;;;;5.28;2.03;;;21.00;99.90;;;;;;5087066;28;20229;-82
2023/07/13 09:04:07;;;;;;;7.90;2.08;;;21.50;99.90;;;;;;5085414;28;20228;-81
2023/07/13 09:06:51;;;;;;;5.05;2.45;;;21.70;99.90;;;;;;5086957;28;20220;-81
2023/07/13 09:09:29;;;;;;;3.47;2.03;;;21.80;99.90;;;;;;5089552;28;20212;-82
2023/07/13 09:12:01;;;;;;;3.50;2.03;;;22.30;99.90;;;;;;5093002;28;20287;-81
2023/07/13 09:14:36;;;;;;;5.25;2.17;;;22.00;99.90;;;;;;5090952;28;20202;-81
2023/07/13 09:17:09;;;;;;;7.22;2.33;;;22.20;99.90;;;;;;5093451;28;20201;-80
2023/07/13 09:19:36;;;;;;;3.90;2.08;;;22.70;99.90;;;;;;5080685;28;20204;-79
2023/07/13 09:22:05;;;;;;;8.25;2.83;;;21.60;99.90;;;;;;5088820;28;20600;-80
2023/07/13 09:24:38;;;;;;;4.75;2.20;;;21.50;99.90;;;;;;5085993;28;20204;-81
2023/07/13 09:27:17;;;;;;;4.63;2.35;;;21.80;99.90;;;;;;5085624;28;20224;-81
2023/07/13 09:29:48;;;;;;;5.88;2.13;;;21.80;99.90;;;;;;5091175;28;20237;-80
2023/07/13 09:32:22;;;;;;;5.32;2.30;;;21.90;99.90;;;;;;5084775;28;20218;-81
2023/07/13 09:34:52;;;;;;;4.65;2.30;;;21.90;99.90;;;;;;5091436;28;20281;-81
2023/07/13 09:37:21;;;;;;;4.57;2.55;;;22.60;99.90;;;;;;5085757;28;20195;-82
2023/07/13 09:39:50;;;;;;;4.63;2.30;;;22.60;99.90;;;;;;5087748;28;20274;-80
2023/07/13 09:42:19;;;;;;;4.10;2.53;;;22.70;99.90;;;;;;5086216;28;20221;-81
2023/07/13 09:44:54;;;;;;;2.45;2.25;;;22.90;99.90;;;;;;5086832;28;20221;-79
2023/07/13 09:47:26;;;;;;;5.10;2.78;;;22.70;99.90;;;;;;5085467;28;20224;-82
2023/07/13 09:49:58;;;;;;;4.50;2.15;;;23.20;99.90;;;;;;5089723;28;20222;-82
2023/07/13 09:52:27;;;;;;;3.75;2.20;;;23.20;99.90;;;;;;5086142;28;20228;-82
2023/07/13 09:54:58;;;;;;;3.50;2.30;;;23.30;99.90;;;;;;5083969;28;20194;-81
2023/07/13 09:57:27;;;;;;;5.95;2.15;;;23.70;99.90;;;;;;5082487;28;20205;-81
2023/07/13 09:59:58;;;;;;;5.65;2.55;;;24.00;99.90;;;;;;5082811;28;20198;-81
2023/07/13 10:02:29;;;;;;;2.95;2.28;;;24.20;99.90;;;;;;5092777;28;20291;-81
2023/07/13 10:05:01;;;;;;;5.15;2.10;;;23.60;99.90;;;;;;5087202;28;20240;-80
2023/07/13 10:07:28;;;;;;;5.53;2.38;;;24.10;99.90;;;;;;5085474;28;20626;-81
2023/07/13 10:09:56;;;;;;;5.00;2.28;;;24.40;99.90;;;;;;5089717;28;20256;-81
2023/07/13 10:12:24;;;;;;;5.03;2.45;;;24.90;99.90;;;;;;5084982;28;20660;-80
2023/07/13 10:14:54;;;;;;;4.55;2.30;;;24.70;99.90;;;;;;5090899;28;20251;-80
2023/07/13 10:17:30;;;;;;;3.83;2.22;;;24.40;99.90;;;;;;5084334;28;20213;-80
2023/07/13 10:20:00;;;;;;;5.13;2.22;;;24.40;99.90;;;;;;5090629;28;20205;-82
2023/07/13 10:22:38;;;;;;;5.68;2.10;;;24.60;99.90;;;;;;5093749;28;20221;-82
2023/07/13 10:25:17;;;;;;;6.43;2.58;;;25.30;99.90;;;;;;5087910;28;20198;-81
2023/07/13 10:27:44;;;;;;;4.95;2.08;;;24.80;99.90;;;;;;5083656;28;20202;-80
2023/07/13 10:30:18;;;;;;;1.73;1.63;;;24.30;99.90;;;;;;5083507;28;20644;-81
2023/07/13 10:32:46;;;;;;;5.30;2.08;;;25.40;99.90;;;;;;5083631;28;20249;-82
2023/07/13 10:35:16;;;;;;;5.55;2.40;;;25.20;99.90;;;;;;5091515;28;20217;-82
2023/07/13 10:37:50;;;;;;;6.07;2.30;;;25.90;99.90;;;;;;5083302;28;20202;-82
2023/07/13 10:40:20;;;;;;;3.95;2.10;;;26.00;99.90;;;;;;5084208;28;20233;-80
2023/07/13 10:42:51;;;;;;;6.25;2.13;;;25.90;99.90;;;;;;5083412;28;20596;-79
2023/07/13 10:45:21;;;;;;;5.95;2.55;;;26.30;99.90;;;;;;5083523;28;20548;-78
2023/07/13 10:47:52;;;;;;;4.13;2.03;;;25.70;98.80;;;;;;5083426;28;20202;-80
2023/07/13 10:50:24;;;;;;;2.95;1.55;;;26.00;76.30;;;;;;5083052;28;20199;-79
2023/07/13 10:52:54;;;;;;;2.28;1.60;;;25.70;57.30;;;;;;5086128;28;20262;-81
2023/07/13 10:55:39;;;;;;;4.43;1.90;;;26.20;57.20;;;;;;5086465;28;20244;-79
2023/07/13 10:58:14;;;;;;;4.50;1.90;;;25.80;26.10;;;;;;5086591;28;20203;-80
2023/07/13 11:00:56;;;;;;;5.18;1.75;;;25.70;32.60;;;;;;5086051;28;20220;-80
2023/07/13 11:03:29;;;;;;;2.38;1.60;;;25.50;27.20;;;;;;5086565;28;20218;-80
2023/07/13 11:06:09;;;;;;;3.85;1.98;;;26.00;27.90;;;;;;5089405;28;20190;-80
2023/07/13 11:08:38;;;;;;;4.25;2.25;;;26.50;5.90;;;;;;5084953;28;20283;-80
2023/07/13 11:11:36;;;;;;;2.90;2.00;;;26.60;12.60;;;;;;5086537;28;20201;-80
2023/07/13 11:14:04;;;;;;;4.93;1.92;;;25.90;1.70;;;;;;5094803;28;20206;-81
2023/07/13 11:16:44;;;;;;;5.05;2.20;;;26.20;4.20;;;;;;5084082;28;20221;-80
2023/07/13 11:19:40;;;;;;;4.53;1.92;;;25.80;5.60;;;;;;5086427;28;20655;-80
2023/07/13 11:22:17;;;;;;;2.45;1.77;;;25.70;1.00;;;;;;5093281;28;20225;-81
2023/07/13 11:24:58;;;;;;;3.63;1.67;;;26.60;3.80;;;;;;5086832;28;20255;-80
2023/07/13 11:27:44;;;;;;;2.67;1.70;;;27.00;1.00;;;;;;5087037;28;20226;-81
2023/07/13 11:30:24;;;;;;;3.10;1.63;;;27.20;1.00;;;;;;5089903;28;20201;-81
2023/07/13 11:33:05;;;;;;;3.03;1.60;;;26.50;1.00;;;;;;5077775;28;20233;-81
2023/07/13 11:35:38;;;;;;;3.90;2.30;;;25.90;1.00;;;;;;5087409;28;20307;-78
2023/07/13 11:38:13;;;;;;;4.22;2.13;;;25.30;1.00;;;;;;5098014;28;20237;-81
2023/07/13 11:40:40;;;;;;;3.47;2.30;;;24.80;1.00;;;;;;5089768;28;20228;-81
2023/07/13 11:43:08;;;;;;;4.68;2.30;;;25.70;1.00;;;;;;5090283;28;20218;-82
2023/07/13 11:45:35;;;;;;;3.35;2.00;;;26.30;1.00;;;;;;5089247;28;20255;-81
2023/07/13 11:48:02;;;;;;;4.03;2.10;;;26.80;1.00;;;;;;5097703;28;20197;-82
2023/07/13 11:50:30;;;;;;;3.08;1.98;;;27.10;1.00;;;;;;5083727;28;20943;-81
2023/07/13 11:53:00;;;;;;;3.92;1.90;;;26.00;1.00;;;;;;5093602;28;20222;-82
2023/07/13 11:55:27;;;;;;;4.15;1.95;;;26.30;1.00;;;;;;5090515;28;20205;-84
2023/07/13 11:57:59;;;;;;;2.40;2.20;;;25.40;1.00;;;;;;5088992;28;20209;-83
2023/07/13 12:00:28;;;;;;;2.85;2.00;;;25.30;1.00;;;;;;5080603;28;20669;-83
2023/07/13 12:02:59;;;;;;;3.28;2.15;;;24.90;1.00;;;;;;5091097;28;20214;-80
2023/07/13 12:05:26;;;;;;;4.00;2.10;;;24.90;1.00;;;;;;5089251;28;20210;-80
2023/07/13 12:07:54;;;;;;;3.10;2.17;;;24.70;1.00;;;;;;5087333;28;20202;-81
2023/07/13 12:10:24;;;;;;;3.33;2.30;;;24.30;1.00;;;;;;5087282;28;20212;-82
2023/07/13 12:12:54;;;;;;;5.00;2.10;;;24.00;1.00;;;;;;5095454;28;20218;-83
2023/07/13 12:15:23;;;;;;;2.08;1.80;;;25.00;1.00;;;;;;5096818;28;20297;-85
2023/07/13 12:17:51;;;;;;;4.18;2.38;;;25.30;1.00;;;;;;5078293;28;20194;-81
2023/07/13 12:20:25;;;;;;;2.55;1.80;;;25.50;1.00;;;;;;5087365;28;20202;-83
2023/07/13 12:22:52;;;;;;;3.60;2.40;;;25.30;1.00;;;;;;5094847;28;20709;-82
2023/07/13 12:25:20;;;;;;;4.25;2.45;;;25.00;1.00;;;;;;5091030;28;20292;-83
2023/07/13 12:27:50;;;;;;;3.75;2.22;;;24.70;1.00;;;;;;5086891;28;20194;-82
2023/07/13 12:30:27;;;;;;;3.58;2.15;;;24.70;1.00;;;;;;5087505;28;20206;-83
2023/07/13 12:33:02;;;;;;;5.13;2.42;;;25.50;1.00;;;;;;5089325;28;20225;-83
2023/07/13 12:35:35;;;;;;;4.97;2.70;;;25.90;1.00;;;;;;5089035;28;20280;-82
2023/07/13 12:38:02;;;;;;;4.43;2.63;;;25.20;1.00;;;;;;5085967;28;20256;-84
2023/07/13 12:40:33;;;;;;;3.03;2.15;;;25.80;1.00;;;;;;5085981;28;20204;-80
2023/07/13 12:43:04;;;;;;;4.68;2.15;;;26.30;1.00;;;;;;5084867;28;20247;-84
2023/07/13 12:45:31;;;;;;;3.38;2.00;;;26.50;1.00;;;;;;5089313;28;20354;-82
2023/07/13 12:48:04;;;;;;;5.38;2.22;;;26.80;1.00;;;;;;5081639;28;20196;-83
2023/07/13 12:50:37;;;;;;;2.20;2.00;;;26.70;1.00;;;;;;5088454;28;20209;-81
2023/07/13 12:53:07;;;;;;;4.47;2.28;;;26.60;1.00;;;;;;5086143;28;20600;-84
2023/07/13 12:55:42;;;;;;;4.38;2.00;;;26.70;1.00;;;;;;5095219;28;20263;-82
2023/07/13 12:58:20;;;;;;;3.85;2.28;;;26.20;1.00;;;;;;5085275;28;20193;-84